createdAt,value
2022-11-15T00:00:14.589Z,3.34
2022-11-15T00:01:18.949Z,3.38
2022-11-15T00:02:21.153Z,3.36
2022-11-15T00:03:30.055Z,3.37
2022-11-15T00:04:32.204Z,3.41
2022-11-15T00:05:36.857Z,3.40
2022-11-15T00:06:38.868Z,3.38
2022-11-15T00:07:55.168Z,3.41
2022-11-15T00:08:44.604Z,3.42
2022-11-15T00:09:47.478Z,3.34
2022-11-15T00:12:09.560Z,3.40
2022-11-15T00:13:14.323Z,3.33
2022-11-15T00:14:16.268Z,3.35
2022-11-15T00:15:18.148Z,3.37
2022-11-15T00:16:20.098Z,3.34
2022-11-15T00:17:21.977Z,3.35
2022-11-15T00:18:24.368Z,3.32
2022-11-15T00:19:27.203Z,3.33
2022-11-15T00:20:29.567Z,3.28
2022-11-15T00:21:32.301Z,3.26
2022-11-15T00:22:34.918Z,3.27
2022-11-15T00:23:37.241Z,3.22
2022-11-15T00:24:39.138Z,3.26
2022-11-15T00:25:41.390Z,3.27
2022-11-15T00:26:44.962Z,3.30
2022-11-15T00:27:47.856Z,3.25
2022-11-15T00:28:52.744Z,3.27
2022-11-15T00:29:54.700Z,3.33
2022-11-15T00:31:01.734Z,3.26
2022-11-15T00:32:03.686Z,3.31
2022-11-15T00:33:06.555Z,3.31
2022-11-15T00:34:10.265Z,3.26
2022-11-15T00:35:12.215Z,3.25
2022-11-15T00:36:14.280Z,3.25
2022-11-15T00:37:16.139Z,3.30
2022-11-15T00:38:17.981Z,3.25
2022-11-15T00:39:19.893Z,3.27
2022-11-15T00:40:21.849Z,3.25
2022-11-15T00:41:23.717Z,3.25
2022-11-15T00:42:25.583Z,3.30
2022-11-15T00:43:27.715Z,3.24
2022-11-15T00:44:29.947Z,3.26
2022-11-15T00:45:31.855Z,3.28
2022-11-15T00:46:33.925Z,3.22
2022-11-15T00:47:36.380Z,3.24
2022-11-15T00:48:38.256Z,3.18
2022-11-15T00:49:40.249Z,3.20
2022-11-15T00:50:42.349Z,3.25
2022-11-15T00:51:45.774Z,3.31
2022-11-15T00:52:47.721Z,3.26
2022-11-15T00:53:50.522Z,3.23
2022-11-15T00:54:52.537Z,3.28
2022-11-15T00:55:55.318Z,3.25
2022-11-15T00:56:57.456Z,3.28
2022-11-15T00:58:00.736Z,3.27
2022-11-15T00:59:03.509Z,3.02
2022-11-15T01:00:08.107Z,3.22
2022-11-15T01:01:14.069Z,3.22
2022-11-15T01:02:16.997Z,3.31
2022-11-15T01:03:19.745Z,3.28
2022-11-15T01:04:22.644Z,3.25
2022-11-15T01:05:24.985Z,3.25
2022-11-15T01:06:27.345Z,3.34
2022-11-15T01:07:29.542Z,3.35
2022-11-15T01:08:32.441Z,3.31
2022-11-15T01:09:35.988Z,3.30
2022-11-15T01:10:38.236Z,3.30
2022-11-15T01:11:42.126Z,3.31
2022-11-15T01:12:44.474Z,3.33
2022-11-15T01:13:46.669Z,3.30
2022-11-15T01:14:50.120Z,3.33
2022-11-15T01:15:52.226Z,3.35
2022-11-15T01:16:54.941Z,3.30
2022-11-15T01:17:56.867Z,3.34
2022-11-15T01:18:59.502Z,3.28
2022-11-15T01:20:01.829Z,3.26
2022-11-15T01:21:09.632Z,3.28
2022-11-15T01:22:11.867Z,3.25
2022-11-15T01:23:15.992Z,3.27
2022-11-15T01:24:18.903Z,3.27
2022-11-15T01:25:21.610Z,3.32
2022-11-15T01:26:25.007Z,3.23
2022-11-15T01:27:28.004Z,3.24
2022-11-15T01:28:32.038Z,3.23
2022-11-15T01:29:35.386Z,3.12
2022-11-15T01:30:37.635Z,3.16
2022-11-15T01:31:39.795Z,3.16
2022-11-15T01:32:41.864Z,3.19
2022-11-15T01:33:44.735Z,3.19
2022-11-15T01:34:46.901Z,3.19
2022-11-15T01:35:49.145Z,3.24
2022-11-15T01:36:51.944Z,3.26
2022-11-15T01:37:54.106Z,3.26
2022-11-15T01:39:00.111Z,3.23
2022-11-15T01:40:03.207Z,3.24
2022-11-15T01:41:09.113Z,3.26
2022-11-15T01:42:14.888Z,3.24
2022-11-15T01:43:26.484Z,3.24
2022-11-15T01:44:50.011Z,3.25
2022-11-15T01:45:55.914Z,3.28
2022-11-15T01:47:01.199Z,3.25
2022-11-15T01:48:05.797Z,3.23
2022-11-15T01:49:14.133Z,3.22
2022-11-15T01:50:20.400Z,3.23
2022-11-15T01:51:25.643Z,3.26
2022-11-15T01:52:30.811Z,3.23
2022-11-15T01:53:36.271Z,3.23
2022-11-15T01:54:38.913Z,3.28
2022-11-15T01:55:41.360Z,3.24
2022-11-15T01:56:47.268Z,3.26
2022-11-15T01:57:53.110Z,3.30
2022-11-15T01:58:58.658Z,3.27
2022-11-15T02:00:03.393Z,3.25
2022-11-15T02:01:05.762Z,3.25
2022-11-15T02:02:09.069Z,3.23
2022-11-15T02:03:11.967Z,3.23
2022-11-15T02:04:17.363Z,3.29
2022-11-15T02:05:19.676Z,3.21
2022-11-15T02:06:23.384Z,3.23
2022-11-15T02:07:26.386Z,3.26
2022-11-15T02:08:29.282Z,3.30
2022-11-15T02:09:32.084Z,3.26
2022-11-15T02:10:35.075Z,3.21
2022-11-15T02:11:37.740Z,3.22
2022-11-15T02:12:40.893Z,3.23
2022-11-15T02:13:45.214Z,3.21
2022-11-15T02:14:54.011Z,3.23
2022-11-15T02:16:03.537Z,3.23
2022-11-15T02:17:12.473Z,3.26
2022-11-15T02:18:37.935Z,3.28
2022-11-15T02:19:49.567Z,3.27
2022-11-15T02:20:58.453Z,3.26
2022-11-15T02:22:31.831Z,3.22
2022-11-15T02:24:56.708Z,3.28
2022-11-15T02:26:14.051Z,3.14
2022-11-15T02:27:44.542Z,3.14
2022-11-15T02:29:07.480Z,3.18
2022-11-15T02:30:47.390Z,3.15
2022-11-15T02:32:08.076Z,3.17
2022-11-15T02:33:16.821Z,3.20
2022-11-15T02:34:37.647Z,3.20
2022-11-15T02:37:13.986Z,3.35
2022-11-15T02:38:25.568Z,3.18
2022-11-15T02:39:29.217Z,3.20
2022-11-15T02:40:41.062Z,3.23
2022-11-15T02:43:11.483Z,3.30
2022-11-15T02:44:19.988Z,3.19
2022-11-15T02:45:25.766Z,3.16
2022-11-15T02:46:59.879Z,3.17
2022-11-15T02:48:05.055Z,3.20
2022-11-15T02:49:07.138Z,3.16
2022-11-15T02:50:14.959Z,3.18
2022-11-15T02:51:17.876Z,3.19
2022-11-15T02:52:23.209Z,3.20
2022-11-15T02:53:27.523Z,3.18
2022-11-15T02:54:32.152Z,3.20
2022-11-15T02:55:41.022Z,3.21
2022-11-15T02:56:46.052Z,3.20
2022-11-15T02:58:02.123Z,3.17
2022-11-15T02:59:13.715Z,3.23
2022-11-15T03:00:19.862Z,3.15
2022-11-15T03:01:59.652Z,3.16
2022-11-15T03:03:33.408Z,3.16
2022-11-15T03:04:39.438Z,3.15
2022-11-15T03:06:00.789Z,3.16
2022-11-15T03:08:17.942Z,3.30
2022-11-15T03:09:36.385Z,3.17
2022-11-15T03:11:03.513Z,3.17
2022-11-15T03:12:26.305Z,3.21
2022-11-15T03:13:32.428Z,3.16
2022-11-15T03:14:59.823Z,3.15
2022-11-15T03:16:05.793Z,3.15
2022-11-15T03:17:20.479Z,3.15
2022-11-15T03:18:38.195Z,3.13
2022-11-15T03:19:59.261Z,3.20
2022-11-15T03:21:05.265Z,3.18
2022-11-15T03:22:10.738Z,3.14
2022-11-15T03:23:13.932Z,3.15
2022-11-15T03:24:23.279Z,3.16
2022-11-15T03:25:26.078Z,3.12
2022-11-15T03:26:30.661Z,3.17
2022-11-15T03:27:39.224Z,3.14
2022-11-15T03:28:45.049Z,3.18
2022-11-15T03:29:50.938Z,3.13
2022-11-15T03:30:55.661Z,3.17
2022-11-15T03:32:01.503Z,3.22
2022-11-15T03:33:05.534Z,3.19
2022-11-15T03:34:12.389Z,3.20
2022-11-15T03:35:18.150Z,3.18
2022-11-15T03:36:24.302Z,3.17
2022-11-15T03:37:48.485Z,3.15
2022-11-15T03:38:54.398Z,3.15
2022-11-15T03:39:57.069Z,3.09
2022-11-15T03:41:02.507Z,3.17
2022-11-15T03:42:20.213Z,3.17
2022-11-15T03:44:54.017Z,3.30
2022-11-15T03:46:03.318Z,3.15
2022-11-15T03:47:28.146Z,3.17
2022-11-15T03:48:34.014Z,3.16
2022-11-15T03:49:40.180Z,3.17
2022-11-15T03:50:45.065Z,3.18
2022-11-15T03:51:47.479Z,3.20
2022-11-15T03:52:51.945Z,3.21
2022-11-15T03:53:54.299Z,3.17
2022-11-15T03:54:58.815Z,3.18
2022-11-15T03:56:01.075Z,3.20
2022-11-15T03:57:04.075Z,3.22
2022-11-15T03:58:06.687Z,3.17
2022-11-15T03:59:09.392Z,3.20
2022-11-15T04:00:13.492Z,3.12
2022-11-15T04:01:16.495Z,3.17
2022-11-15T04:02:19.603Z,3.21
2022-11-15T04:03:21.668Z,2.87
2022-11-15T04:04:25.201Z,2.97
2022-11-15T04:05:27.383Z,3.06
2022-11-15T04:06:29.402Z,3.09
2022-11-15T04:07:31.921Z,2.97
2022-11-15T04:08:34.147Z,3.06
2022-11-15T04:09:37.520Z,3.13
2022-11-15T04:10:39.935Z,3.18
2022-11-15T04:11:41.948Z,3.20
2022-11-15T04:12:45.798Z,3.21
2022-11-15T04:13:48.048Z,3.21
2022-11-15T04:14:50.104Z,3.20
2022-11-15T04:15:52.077Z,3.17
2022-11-15T04:16:54.269Z,3.24
2022-11-15T04:17:57.653Z,3.25
2022-11-15T04:18:59.848Z,3.23
2022-11-15T04:20:05.077Z,3.04
2022-11-15T04:21:08.712Z,2.97
2022-11-15T04:22:10.824Z,3.11
2022-11-15T04:23:16.736Z,3.14
2022-11-15T04:24:18.957Z,3.20
2022-11-15T04:25:24.038Z,3.22
2022-11-15T04:26:25.672Z,3.23
2022-11-15T04:27:27.692Z,3.22
2022-11-15T04:28:30.038Z,3.22
2022-11-15T04:29:32.264Z,3.20
2022-11-15T04:30:34.595Z,3.17
2022-11-15T04:31:36.627Z,3.18
2022-11-15T04:32:38.848Z,3.22
2022-11-15T04:33:41.088Z,3.20
2022-11-15T04:34:43.678Z,3.22
2022-11-15T04:35:45.920Z,3.22
2022-11-15T04:36:49.666Z,2.98
2022-11-15T04:37:53.705Z,3.13
2022-11-15T04:38:57.749Z,3.15
2022-11-15T04:40:00.275Z,3.16
2022-11-15T04:41:03.557Z,3.18
2022-11-15T04:42:05.843Z,3.23
2022-11-15T04:43:07.781Z,3.13
2022-11-15T04:44:10.557Z,3.20
2022-11-15T04:45:13.295Z,3.25
2022-11-15T04:46:15.614Z,3.15
2022-11-15T04:47:18.964Z,3.16
2022-11-15T04:48:22.317Z,2.78
2022-11-15T04:49:24.424Z,2.75
2022-11-15T04:50:26.491Z,2.97
2022-11-15T04:51:28.354Z,2.87
2022-11-15T04:52:30.327Z,2.97
2022-11-15T04:53:32.558Z,3.05
2022-11-15T04:54:34.854Z,3.13
2022-11-15T04:55:36.704Z,3.15
2022-11-15T04:56:39.674Z,3.17
2022-11-15T04:57:41.642Z,3.05
2022-11-15T04:58:43.570Z,2.98
2022-11-15T04:59:45.944Z,3.08
2022-11-15T05:00:48.800Z,3.04
2022-11-15T05:01:51.041Z,3.00
2022-11-15T05:02:53.040Z,3.08
2022-11-15T05:03:55.694Z,3.05
2022-11-15T05:04:57.618Z,3.03
2022-11-15T05:05:59.686Z,2.93
2022-11-15T05:07:01.932Z,3.11
2022-11-15T05:08:04.737Z,2.94
2022-11-15T05:09:07.141Z,2.97
2022-11-15T05:10:10.185Z,2.86
2022-11-15T05:11:12.132Z,2.99
2022-11-15T05:12:14.165Z,3.02
2022-11-15T05:13:16.050Z,3.03
2022-11-15T05:14:18.114Z,3.06
2022-11-15T05:15:19.985Z,2.95
2022-11-15T05:16:23.001Z,3.10
2022-11-15T05:17:24.990Z,2.98
2022-11-15T05:18:27.508Z,2.90
2022-11-15T05:19:29.563Z,2.96
2022-11-15T05:20:31.696Z,2.90
2022-11-15T05:21:34.858Z,2.96
2022-11-15T05:22:36.934Z,2.94
2022-11-15T05:23:40.107Z,3.03
2022-11-15T05:24:42.034Z,3.06
2022-11-15T05:25:43.923Z,3.09
2022-11-15T05:26:48.851Z,3.00
2022-11-15T05:27:51.614Z,3.00
2022-11-15T05:28:55.454Z,2.98
2022-11-15T05:29:57.881Z,3.05
2022-11-15T05:31:08.916Z,2.93
2022-11-15T05:32:12.359Z,2.79
2022-11-15T05:33:15.005Z,2.85
2022-11-15T05:34:16.887Z,2.81
2022-11-15T05:35:22.716Z,2.79
2022-11-15T05:36:31.964Z,2.84
2022-11-15T05:37:34.039Z,2.86
2022-11-15T05:38:36.281Z,2.80
2022-11-15T05:39:38.536Z,2.85
2022-11-15T05:40:41.208Z,2.81
2022-11-15T05:41:46.912Z,2.89
2022-11-15T05:42:49.108Z,2.79
2022-11-15T05:43:52.903Z,2.75
2022-11-15T05:44:55.196Z,2.82
2022-11-15T05:45:59.374Z,2.79
2022-11-15T05:47:04.885Z,2.81
2022-11-15T05:48:11.199Z,2.80
2022-11-15T05:49:17.039Z,2.68
2022-11-15T05:50:20.111Z,2.36
2022-11-15T05:51:23.136Z,2.75
2022-11-15T05:52:28.840Z,2.89
2022-11-15T05:53:32.540Z,2.98
2022-11-15T05:54:36.859Z,2.83
2022-11-15T05:55:40.162Z,2.93
2022-11-15T05:56:44.716Z,3.01
2022-11-15T05:57:49.286Z,2.89
2022-11-15T05:58:59.070Z,2.98
2022-11-15T05:59:58.846Z,3.01
2022-11-15T06:01:01.652Z,2.92
2022-11-15T06:02:04.759Z,3.08
2022-11-15T06:03:06.800Z,3.00
2022-11-15T06:04:09.018Z,3.01
2022-11-15T06:05:11.579Z,2.85
2022-11-15T06:06:16.503Z,2.83
2022-11-15T06:07:18.135Z,2.88
2022-11-15T06:08:21.464Z,2.99
2022-11-15T06:09:23.949Z,3.08
2022-11-15T06:10:26.569Z,3.08
2022-11-15T06:11:28.550Z,2.98
2022-11-15T06:12:30.509Z,3.01
2022-11-15T06:13:34.298Z,2.98
2022-11-15T06:14:36.417Z,3.04
2022-11-15T06:15:38.292Z,3.09
2022-11-15T06:16:40.246Z,3.06
2022-11-15T06:17:42.130Z,3.05
2022-11-15T06:18:45.054Z,3.03
2022-11-15T06:19:46.940Z,3.09
2022-11-15T06:20:48.938Z,3.06
2022-11-15T06:21:50.817Z,3.13
2022-11-15T06:23:01.947Z,3.08
2022-11-15T06:24:05.610Z,3.19
2022-11-15T06:25:07.754Z,3.11
2022-11-15T06:26:10.145Z,3.08
2022-11-15T06:27:12.503Z,3.16
2022-11-15T06:28:14.409Z,3.27
2022-11-15T06:29:16.423Z,3.27
2022-11-15T06:30:27.370Z,3.31
2022-11-15T06:31:34.910Z,3.14
2022-11-15T06:32:36.806Z,3.31
2022-11-15T06:33:39.546Z,3.36
2022-11-15T06:34:41.790Z,3.38
2022-11-15T06:35:43.671Z,3.23
2022-11-15T06:36:45.774Z,3.24
2022-11-15T06:37:47.673Z,3.26
2022-11-15T06:38:49.545Z,3.30
2022-11-15T06:39:51.545Z,3.08
2022-11-15T06:40:54.784Z,3.22
2022-11-15T06:41:56.798Z,3.22
2022-11-15T06:42:59.972Z,3.06
2022-11-15T06:44:03.043Z,3.14
2022-11-15T06:45:06.317Z,3.14
2022-11-15T06:46:09.039Z,3.33
2022-11-15T06:47:10.906Z,3.39
2022-11-15T06:48:12.767Z,3.42
2022-11-15T06:49:14.731Z,3.44
2022-11-15T06:50:17.542Z,3.29
2022-11-15T06:51:20.228Z,3.12
2022-11-15T06:52:23.287Z,3.25
2022-11-15T06:53:27.432Z,3.10
2022-11-15T06:54:29.485Z,3.14
2022-11-15T06:55:31.354Z,3.23
2022-11-15T06:56:34.973Z,3.32
2022-11-15T06:57:37.254Z,3.24
2022-11-15T06:58:39.136Z,3.17
2022-11-15T06:59:41.049Z,3.17
2022-11-15T07:00:43.730Z,3.08
2022-11-15T07:01:45.670Z,3.23
2022-11-15T07:02:50.492Z,3.27
2022-11-15T07:03:52.434Z,3.35
2022-11-15T07:04:54.498Z,3.36
2022-11-15T07:06:04.239Z,3.32
2022-11-15T07:07:02.857Z,3.22
2022-11-15T07:08:04.746Z,3.17
2022-11-15T07:09:06.619Z,3.19
2022-11-15T07:10:09.526Z,3.26
2022-11-15T07:11:11.418Z,3.18
2022-11-15T07:12:13.791Z,3.18
2022-11-15T07:13:15.867Z,3.26
2022-11-15T07:14:17.865Z,3.24
2022-11-15T07:15:21.667Z,3.26
2022-11-15T07:16:23.994Z,3.21
2022-11-15T07:17:27.254Z,3.25
2022-11-15T07:18:29.874Z,3.13
2022-11-15T07:19:32.140Z,3.16
2022-11-15T07:20:34.824Z,3.25
2022-11-15T07:21:37.468Z,3.14
2022-11-15T07:23:51.776Z,3.20
2022-11-15T07:24:53.650Z,3.18
2022-11-15T07:26:00.034Z,3.30
2022-11-15T07:27:02.455Z,3.17
2022-11-15T07:28:04.659Z,3.28
2022-11-15T07:29:07.659Z,3.10
2022-11-15T07:30:11.438Z,3.12
2022-11-15T07:31:13.846Z,3.11
2022-11-15T07:32:17.045Z,3.14
2022-11-15T07:33:18.956Z,3.16
2022-11-15T07:34:20.861Z,3.32
2022-11-15T07:35:26.239Z,3.37
2022-11-15T07:36:28.282Z,3.40
2022-11-15T07:37:30.863Z,3.46
2022-11-15T07:38:42.206Z,3.31
2022-11-15T07:39:39.708Z,3.22
2022-11-15T07:40:41.877Z,3.36
2022-11-15T07:41:43.765Z,3.42
2022-11-15T07:42:45.639Z,3.39
2022-11-15T07:43:54.748Z,3.40
2022-11-15T07:44:57.714Z,3.28
2022-11-15T07:46:02.559Z,3.35
2022-11-15T07:47:04.740Z,3.19
2022-11-15T07:48:06.618Z,3.31
2022-11-15T07:49:09.334Z,3.26
2022-11-15T07:50:11.634Z,3.30
2022-11-15T07:51:15.279Z,3.36
2022-11-15T07:52:17.986Z,3.23
2022-11-15T07:53:19.846Z,3.28
2022-11-15T07:54:21.783Z,3.20
2022-11-15T07:55:25.251Z,3.36
2022-11-15T07:56:27.637Z,3.47
2022-11-15T07:57:30.339Z,3.35
2022-11-15T07:58:35.405Z,3.32
2022-11-15T07:59:37.472Z,3.42
2022-11-15T08:00:40.464Z,3.35
2022-11-15T08:01:42.632Z,3.30
2022-11-15T08:02:46.274Z,3.44
2022-11-15T08:03:48.546Z,3.23
2022-11-15T08:04:50.620Z,3.32
2022-11-15T08:05:52.698Z,3.37
2022-11-15T08:06:55.969Z,3.31
2022-11-15T08:07:59.536Z,3.23
2022-11-15T08:09:01.831Z,3.40
2022-11-15T08:10:06.208Z,3.32
2022-11-15T08:11:08.119Z,3.39
2022-11-15T08:12:09.991Z,3.32
2022-11-15T08:13:13.288Z,3.45
2022-11-15T08:14:15.473Z,3.54
2022-11-15T08:15:17.464Z,3.57
2022-11-15T08:16:19.548Z,3.48
2022-11-15T08:17:22.224Z,3.60
2022-11-15T08:18:25.425Z,3.30
2022-11-15T08:19:27.910Z,3.38
2022-11-15T08:20:31.022Z,3.50
2022-11-15T08:21:33.005Z,3.62
2022-11-15T08:22:34.871Z,3.67
2022-11-15T08:23:37.853Z,3.62
2022-11-15T08:24:40.071Z,3.65
2022-11-15T08:25:42.111Z,3.73
2022-11-15T08:26:44.095Z,3.56
2022-11-15T08:27:46.156Z,3.61
2022-11-15T08:28:48.123Z,3.56
2022-11-15T08:29:50.212Z,3.53
2022-11-15T08:30:52.422Z,3.52
2022-11-15T08:31:56.049Z,3.52
2022-11-15T08:32:58.805Z,3.58
2022-11-15T08:34:01.292Z,3.72
2022-11-15T08:35:04.222Z,3.74
2022-11-15T08:36:11.918Z,3.45
2022-11-15T08:37:13.942Z,3.45
2022-11-15T08:38:16.321Z,3.58
2022-11-15T08:39:18.236Z,3.51
2022-11-15T08:40:21.048Z,3.58
2022-11-15T08:41:32.341Z,3.63
2022-11-15T08:42:34.370Z,3.61
2022-11-15T08:43:37.338Z,3.58
2022-11-15T08:44:40.648Z,3.74
2022-11-15T08:45:42.802Z,3.64
2022-11-15T08:46:46.962Z,3.60
2022-11-15T08:47:53.923Z,3.44
2022-11-15T08:48:53.261Z,3.38
2022-11-15T08:49:55.360Z,3.67
2022-11-15T08:50:57.643Z,3.55
2022-11-15T08:51:59.614Z,3.63
2022-11-15T08:53:08.578Z,3.53
2022-11-15T08:54:10.612Z,3.56
2022-11-15T08:55:16.867Z,3.69
2022-11-15T08:56:19.208Z,3.64
2022-11-15T08:57:22.117Z,3.68
2022-11-15T08:58:24.017Z,3.55
2022-11-15T08:59:26.366Z,3.59
2022-11-15T09:00:28.472Z,3.66
2022-11-15T09:01:30.496Z,3.63
2022-11-15T09:02:33.917Z,3.63
2022-11-15T09:03:35.792Z,3.63
2022-11-15T09:04:37.693Z,3.61
2022-11-15T09:05:39.963Z,3.43
2022-11-15T09:06:43.490Z,3.48
2022-11-15T09:07:45.630Z,3.48
2022-11-15T09:08:48.739Z,3.55
2022-11-15T09:09:51.325Z,3.61
2022-11-15T09:10:53.298Z,3.72
2022-11-15T09:12:01.061Z,3.62
2022-11-15T09:12:59.070Z,3.53
2022-11-15T09:14:01.733Z,3.63
2022-11-15T09:15:05.401Z,3.65
2022-11-15T09:16:07.892Z,3.61
2022-11-15T09:17:10.500Z,3.37
2022-11-15T09:18:12.577Z,3.35
2022-11-15T09:19:14.442Z,3.39
2022-11-15T09:20:17.531Z,3.43
2022-11-15T09:21:20.144Z,3.36
2022-11-15T09:22:22.051Z,3.44
2022-11-15T09:23:24.893Z,3.37
2022-11-15T09:24:26.802Z,3.48
2022-11-15T09:25:29.870Z,3.32
2022-11-15T09:26:31.863Z,3.39
2022-11-15T09:27:34.250Z,3.51
2022-11-15T09:28:38.073Z,3.49
2022-11-15T09:29:40.127Z,3.54
2022-11-15T09:30:42.239Z,3.35
2022-11-15T09:31:44.248Z,3.36
2022-11-15T09:32:46.114Z,3.50
2022-11-15T09:33:48.007Z,3.46
2022-11-15T09:34:50.945Z,3.51
2022-11-15T09:35:53.285Z,3.54
2022-11-15T09:36:55.388Z,3.59
2022-11-15T09:37:58.509Z,3.62
2022-11-15T09:39:00.416Z,3.57
2022-11-15T09:40:02.817Z,3.62
2022-11-15T09:41:14.773Z,3.56
2022-11-15T09:42:46.847Z,3.38
2022-11-15T09:44:07.367Z,3.53
2022-11-15T09:47:01.122Z,3.57
2022-11-15T09:48:21.510Z,3.33
2022-11-15T09:49:24.089Z,3.26
2022-11-15T09:50:33.311Z,3.32
2022-11-15T09:51:38.854Z,3.23
2022-11-15T09:52:44.577Z,3.07
2022-11-15T09:54:45.626Z,3.26
2022-11-15T09:55:10.132Z,3.25
2022-11-15T09:56:22.601Z,3.36
2022-11-15T09:57:29.356Z,3.49
2022-11-15T09:58:51.601Z,3.37
2022-11-15T10:00:12.273Z,3.28
2022-11-15T10:01:07.715Z,3.16
2022-11-15T10:02:16.486Z,3.44
2022-11-15T10:03:37.380Z,3.54
2022-11-15T10:04:40.034Z,3.67
2022-11-15T10:05:45.580Z,3.38
2022-11-15T10:07:00.612Z,3.30
2022-11-15T10:08:19.004Z,3.23
2022-11-15T10:09:24.727Z,3.39
2022-11-15T10:10:43.244Z,3.48
2022-11-15T10:11:45.279Z,3.54
2022-11-15T10:12:50.760Z,3.47
2022-11-15T10:13:56.106Z,3.50
2022-11-15T10:15:08.100Z,3.64
2022-11-15T10:16:30.013Z,3.67
2022-11-15T10:17:35.774Z,3.73
2022-11-15T10:18:50.255Z,3.46
2022-11-15T10:20:14.420Z,3.53
2022-11-15T10:21:20.111Z,3.37
2022-11-15T10:22:41.239Z,3.50
2022-11-15T10:23:43.783Z,3.53
2022-11-15T10:24:46.567Z,3.59
2022-11-15T10:26:03.701Z,3.62
2022-11-15T10:27:06.237Z,3.52
2022-11-15T10:28:31.003Z,3.51
2022-11-15T10:29:33.340Z,3.58
2022-11-15T10:30:39.306Z,3.51
2022-11-15T10:31:43.736Z,3.45
2022-11-15T10:32:46.952Z,3.39
2022-11-15T10:33:49.674Z,3.46
2022-11-15T10:34:51.809Z,3.63
2022-11-15T10:36:10.596Z,3.60
2022-11-15T10:37:12.518Z,3.43
2022-11-15T10:38:15.958Z,3.62
2022-11-15T10:39:17.884Z,3.79
2022-11-15T10:40:24.737Z,3.71
2022-11-15T10:41:30.718Z,3.82
2022-11-15T10:42:32.619Z,3.89
2022-11-15T10:43:35.647Z,3.69
2022-11-15T10:44:41.675Z,3.81
2022-11-15T10:45:45.036Z,3.68
2022-11-15T10:47:00.393Z,3.61
2022-11-15T10:48:23.853Z,3.73
2022-11-15T10:49:28.985Z,3.78
2022-11-15T10:50:32.709Z,3.89
2022-11-15T10:51:40.092Z,3.82
2022-11-15T10:52:45.797Z,3.77
2022-11-15T10:53:50.861Z,3.71
2022-11-15T10:54:56.676Z,3.80
2022-11-15T10:56:02.361Z,3.80
2022-11-15T10:57:08.215Z,3.85
2022-11-15T10:59:57.828Z,3.92
2022-11-15T11:01:11.819Z,3.90
2022-11-15T11:02:33.085Z,3.73
2022-11-15T11:03:38.682Z,3.71
2022-11-15T11:04:51.973Z,3.84
2022-11-15T11:06:10.582Z,3.91
2022-11-15T11:08:26.179Z,4.03
2022-11-15T11:09:34.333Z,3.86
2022-11-15T11:10:51.381Z,3.94
2022-11-15T11:11:49.930Z,3.72
2022-11-15T11:12:53.214Z,3.77
2022-11-15T11:13:57.485Z,3.85
2022-11-15T11:15:02.883Z,3.94
2022-11-15T11:16:38.783Z,4.04
2022-11-15T11:17:51.558Z,4.00
2022-11-15T11:19:29.753Z,4.01
2022-11-15T11:20:41.703Z,3.83
2022-11-15T11:21:51.537Z,3.94
2022-11-15T11:23:15.113Z,3.90
2022-11-15T11:24:37.034Z,3.91
2022-11-15T11:26:05.425Z,3.95
2022-11-15T11:27:11.156Z,3.96
2022-11-15T11:28:51.967Z,4.05
2022-11-15T11:30:09.484Z,4.04
2022-11-15T11:31:24.675Z,4.14
2022-11-15T11:32:33.619Z,4.04
2022-11-15T11:33:45.077Z,3.85
2022-11-15T11:34:58.545Z,3.84
2022-11-15T11:36:27.092Z,3.95
2022-11-15T11:37:47.927Z,4.01
2022-11-15T11:38:59.818Z,4.10
2022-11-15T11:40:20.522Z,4.16
2022-11-15T11:41:47.537Z,3.94
2022-11-15T11:42:56.311Z,4.09
2022-11-15T11:44:31.338Z,4.10
2022-11-15T11:45:47.206Z,4.01
2022-11-15T11:47:11.596Z,4.04
2022-11-15T11:48:18.362Z,4.13
2022-11-15T11:49:48.285Z,4.22
2022-11-15T11:50:50.939Z,4.15
2022-11-15T11:52:05.627Z,3.93
2022-11-15T11:53:31.353Z,4.08
2022-11-15T11:54:37.349Z,4.19
2022-11-15T11:55:52.581Z,4.25
2022-11-15T11:56:56.016Z,4.24
2022-11-15T11:58:18.659Z,4.29
2022-11-15T11:59:42.030Z,4.29
2022-11-15T12:02:00.096Z,4.42
2022-11-15T12:03:18.106Z,4.34
2022-11-15T12:04:39.938Z,4.37
2022-11-15T12:05:43.574Z,4.11
2022-11-15T12:06:55.637Z,4.13
2022-11-15T12:09:15.642Z,4.35
2022-11-15T12:10:30.845Z,4.26
2022-11-15T12:11:55.809Z,4.30
2022-11-15T12:13:10.750Z,4.35
2022-11-15T12:14:19.445Z,4.40
2022-11-15T12:15:29.096Z,4.26
2022-11-15T12:16:33.707Z,4.14
2022-11-15T12:17:37.334Z,4.21
2022-11-15T12:18:42.268Z,4.28
2022-11-15T12:19:47.912Z,4.28
2022-11-15T12:20:56.621Z,4.33
2022-11-15T12:22:11.125Z,4.30
2022-11-15T12:23:19.638Z,4.14
2022-11-15T12:24:34.541Z,4.29
2022-11-15T12:25:54.813Z,4.34
2022-11-15T12:27:09.828Z,4.37
2022-11-15T12:29:06.026Z,4.39
2022-11-15T12:29:52.666Z,4.39
2022-11-15T12:31:04.300Z,4.42
2022-11-15T12:33:34.638Z,4.46
2022-11-15T12:34:40.296Z,4.38
2022-11-15T12:35:43.337Z,4.42
2022-11-15T12:36:46.398Z,4.42
2022-11-15T12:37:51.138Z,4.44
2022-11-15T12:39:05.724Z,4.48
2022-11-15T12:40:28.890Z,4.40
2022-11-15T12:41:40.739Z,4.41
2022-11-15T12:43:05.053Z,4.47
2022-11-15T12:44:13.956Z,4.47
2022-11-15T12:45:31.770Z,4.39
2022-11-15T12:46:43.773Z,4.41
2022-11-15T12:47:45.680Z,4.44
2022-11-15T12:48:58.711Z,4.47
2022-11-15T12:50:00.614Z,4.49
2022-11-15T12:51:02.943Z,4.51
2022-11-15T12:52:07.900Z,4.51
2022-11-15T12:53:31.720Z,4.53
2022-11-15T12:54:42.927Z,4.56
2022-11-15T12:55:49.430Z,4.56
2022-11-15T12:57:07.857Z,4.44
2022-11-15T12:58:31.624Z,4.30
2022-11-15T13:00:00.288Z,4.41
2022-11-15T13:01:03.826Z,4.51
2022-11-15T13:02:09.986Z,4.54
2022-11-15T13:03:24.284Z,4.44
2022-11-15T13:04:29.745Z,4.50
2022-11-15T13:05:38.596Z,4.45
2022-11-15T13:06:44.786Z,4.51
2022-11-15T13:07:50.462Z,4.51
2022-11-15T13:08:52.474Z,4.57
2022-11-15T13:09:55.918Z,4.62
2022-11-15T13:10:58.831Z,4.48
2022-11-15T13:12:13.454Z,4.60
2022-11-15T13:13:19.167Z,4.66
2022-11-15T13:14:44.922Z,4.68
2022-11-15T13:16:01.735Z,4.74
2022-11-15T13:17:22.415Z,4.77
2022-11-15T13:18:33.937Z,4.76
2022-11-15T13:19:36.978Z,4.73
2022-11-15T13:20:39.576Z,4.73
2022-11-15T13:21:45.301Z,4.61
2022-11-15T13:22:53.944Z,4.63
2022-11-15T13:23:56.657Z,4.66
2022-11-15T13:25:01.503Z,4.72
2022-11-15T13:26:10.728Z,4.78
2022-11-15T13:27:19.119Z,4.81
2022-11-15T13:28:46.304Z,4.80
2022-11-15T13:29:49.182Z,4.81
2022-11-15T13:32:04.684Z,4.95
2022-11-15T13:33:25.715Z,4.87
2022-11-15T13:35:39.547Z,4.88
2022-11-15T13:36:41.997Z,4.85
2022-11-15T13:37:43.863Z,4.89
2022-11-15T13:38:58.774Z,4.85
2022-11-15T13:40:25.588Z,4.69
2022-11-15T13:41:36.062Z,4.64
2022-11-15T13:42:43.044Z,4.76
2022-11-15T13:43:42.335Z,4.80
2022-11-15T13:45:00.259Z,4.82
2022-11-15T13:46:15.006Z,4.87
2022-11-15T13:47:19.955Z,4.89
2022-11-15T13:48:22.075Z,4.85
2022-11-15T13:49:28.226Z,4.91
2022-11-15T13:50:34.154Z,4.91
2022-11-15T13:51:54.332Z,4.91
2022-11-15T13:53:00.138Z,4.93
2022-11-15T13:54:05.961Z,4.94
2022-11-15T13:55:17.854Z,4.96
2022-11-15T13:56:22.358Z,4.98
2022-11-15T13:57:28.032Z,4.96
2022-11-15T13:58:31.044Z,4.98
2022-11-15T13:59:39.378Z,4.92
2022-11-15T14:00:44.279Z,4.95
2022-11-15T14:01:46.944Z,4.95
2022-11-15T14:02:48.861Z,4.95
2022-11-15T14:03:57.552Z,4.95
2022-11-15T14:06:20.143Z,5.05
2022-11-15T14:07:25.843Z,4.91
2022-11-15T14:08:27.871Z,4.89
2022-11-15T14:09:33.992Z,4.89
2022-11-15T14:10:38.900Z,4.94
2022-11-15T14:11:53.967Z,4.94
2022-11-15T14:12:57.691Z,4.95
2022-11-15T14:14:09.508Z,4.95
2022-11-15T14:15:30.463Z,4.94
2022-11-15T14:16:41.721Z,4.95
2022-11-15T14:17:49.751Z,4.93
2022-11-15T14:18:53.692Z,4.76
2022-11-15T14:19:57.303Z,4.94
2022-11-15T14:21:07.484Z,4.96
2022-11-15T14:22:16.758Z,4.96
2022-11-15T14:24:33.062Z,4.97
2022-11-15T14:25:36.863Z,4.97
2022-11-15T14:26:39.382Z,4.97
2022-11-15T14:27:44.819Z,4.95
2022-11-15T14:28:48.164Z,4.93
2022-11-15T14:29:51.128Z,4.95
2022-11-15T14:30:57.492Z,4.92
2022-11-15T14:32:21.996Z,4.96
2022-11-15T14:33:36.255Z,4.99
2022-11-15T14:34:38.319Z,4.97
2022-11-15T14:35:41.035Z,4.93
2022-11-15T14:36:43.436Z,4.93
2022-11-15T14:43:33.735Z,4.66
2022-11-15T14:44:35.619Z,4.62
2022-11-15T14:45:38.436Z,4.62
2022-11-15T14:46:41.203Z,4.63
2022-11-15T14:47:44.083Z,4.61
2022-11-15T14:48:46.059Z,4.64
2022-11-15T14:49:48.110Z,4.59
2022-11-15T14:50:51.077Z,4.59
2022-11-15T14:51:52.977Z,4.62
2022-11-15T14:52:54.936Z,4.61
2022-11-15T14:53:56.818Z,4.55
2022-11-15T14:55:00.479Z,4.60
2022-11-15T14:56:03.255Z,4.58
2022-11-15T14:57:09.186Z,4.59
2022-11-15T14:58:18.607Z,4.59
2022-11-15T14:59:26.643Z,4.58
2022-11-15T15:00:35.547Z,4.61
2022-11-15T15:01:38.769Z,4.62
2022-11-15T15:02:42.698Z,4.45
2022-11-15T15:03:45.012Z,4.52
2022-11-15T15:04:49.744Z,4.50
2022-11-15T15:05:52.517Z,4.52
2022-11-15T15:06:54.733Z,4.48
2022-11-15T15:07:59.598Z,4.48
2022-11-15T15:09:02.875Z,4.46
2022-11-15T15:10:37.832Z,4.54